sensor_id;sensor_type;location;lat;lon;timestamp;P1;durP1;ratioP1;P2;durP2;ratioP2
77061;SDS011;65989;51.686;5.138;2023-10-08T00:00:46;15.82;;;4.40;;
77061;SDS011;65989;51.686;5.138;2023-10-08T00:03:14;20.95;;;3.88;;
77061;SDS011;65989;51.686;5.138;2023-10-08T00:05:40;12.13;;;3.87;;
77061;SDS011;65989;51.686;5.138;2023-10-08T00:08:06;16.05;;;4.10;;
77061;SDS011;65989;51.686;5.138;2023-10-08T00:10:37;23.90;;;4.20;;
77061;SDS011;65989;51.686;5.138;2023-10-08T00:13:06;17.33;;;4.30;;
77061;SDS011;65989;51.686;5.138;2023-10-08T00:15:38;16.10;;;4.70;;
77061;SDS011;65989;51.686;5.138;2023-10-08T00:18:06;12.13;;;4.20;;
77061;SDS011;65989;51.686;5.138;2023-10-08T00:20:35;14.63;;;4.23;;
77061;SDS011;65989;51.686;5.138;2023-10-08T00:23:13;17.95;;;4.20;;
77061;SDS011;65989;51.686;5.138;2023-10-08T00:25:43;16.75;;;4.50;;
77061;SDS011;65989;51.686;5.138;2023-10-08T00:28:12;13.95;;;4.47;;
77061;SDS011;65989;51.686;5.138;2023-10-08T00:30:41;16.37;;;4.60;;
77061;SDS011;65989;51.686;5.138;2023-10-08T00:33:07;17.38;;;4.60;;
77061;SDS011;65989;51.686;5.138;2023-10-08T00:35:37;16.02;;;4.40;;
77061;SDS011;65989;51.686;5.138;2023-10-08T00:38:02;20.08;;;4.90;;
77061;SDS011;65989;51.686;5.138;2023-10-08T00:40:37;14.95;;;4.88;;
77061;SDS011;65989;51.686;5.138;2023-10-08T00:43:03;19.93;;;4.63;;
77061;SDS011;65989;51.686;5.138;2023-10-08T00:45:38;18.52;;;4.22;;
77061;SDS011;65989;51.686;5.138;2023-10-08T00:48:09;12.65;;;4.53;;
77061;SDS011;65989;51.686;5.138;2023-10-08T00:50:41;17.08;;;4.60;;
77061;SDS011;65989;51.686;5.138;2023-10-08T00:53:11;17.77;;;4.38;;
77061;SDS011;65989;51.686;5.138;2023-10-08T00:55:47;16.00;;;4.83;;
77061;SDS011;65989;51.686;5.138;2023-10-08T00:58:19;18.52;;;4.90;;
77061;SDS011;65989;51.686;5.138;2023-10-08T01:00:50;12.68;;;4.80;;
77061;SDS011;65989;51.686;5.138;2023-10-08T01:03:17;15.60;;;3.95;;
77061;SDS011;65989;51.686;5.138;2023-10-08T01:05:44;14.52;;;4.55;;
77061;SDS011;65989;51.686;5.138;2023-10-08T01:08:13;17.20;;;4.70;;
77061;SDS011;65989;51.686;5.138;2023-10-08T01:10:44;16.63;;;4.38;;
77061;SDS011;65989;51.686;5.138;2023-10-08T01:13:12;13.07;;;4.35;;
77061;SDS011;65989;51.686;5.138;2023-10-08T01:15:44;15.48;;;4.68;;
77061;SDS011;65989;51.686;5.138;2023-10-08T01:18:12;15.70;;;4.63;;
77061;SDS011;65989;51.686;5.138;2023-10-08T01:20:42;16.93;;;5.20;;
77061;SDS011;65989;51.686;5.138;2023-10-08T01:23:13;15.45;;;4.55;;
77061;SDS011;65989;51.686;5.138;2023-10-08T01:25:41;13.30;;;4.40;;
77061;SDS011;65989;51.686;5.138;2023-10-08T01:28:08;13.60;;;4.25;;
77061;SDS011;65989;51.686;5.138;2023-10-08T01:30:45;15.38;;;4.78;;
77061;SDS011;65989;51.686;5.138;2023-10-08T01:33:12;19.03;;;4.60;;
77061;SDS011;65989;51.686;5.138;2023-10-08T01:35:39;14.55;;;4.55;;
77061;SDS011;65989;51.686;5.138;2023-10-08T01:38:04;12.07;;;3.78;;
77061;SDS011;65989;51.686;5.138;2023-10-08T01:40:31;15.82;;;4.93;;
77061;SDS011;65989;51.686;5.138;2023-10-08T01:42:57;14.87;;;4.87;;
77061;SDS011;65989;51.686;5.138;2023-10-08T01:45:25;13.38;;;4.53;;
77061;SDS011;65989;51.686;5.138;2023-10-08T01:47:51;14.90;;;4.70;;
77061;SDS011;65989;51.686;5.138;2023-10-08T01:50:19;13.93;;;4.65;;
77061;SDS011;65989;51.686;5.138;2023-10-08T01:52:50;18.40;;;5.13;;
77061;SDS011;65989;51.686;5.138;2023-10-08T01:55:18;13.50;;;4.65;;
77061;SDS011;65989;51.686;5.138;2023-10-08T01:57:48;17.00;;;5.00;;
77061;SDS011;65989;51.686;5.138;2023-10-08T02:00:14;19.10;;;5.40;;
77061;SDS011;65989;51.686;5.138;2023-10-08T02:02:44;16.13;;;4.50;;
77061;SDS011;65989;51.686;5.138;2023-10-08T02:05:09;19.67;;;4.80;;
77061;SDS011;65989;51.686;5.138;2023-10-08T02:07:39;17.90;;;4.38;;
77061;SDS011;65989;51.686;5.138;2023-10-08T02:10:05;16.10;;;4.93;;
77061;SDS011;65989;51.686;5.138;2023-10-08T02:12:32;13.90;;;4.70;;
77061;SDS011;65989;51.686;5.138;2023-10-08T02:15:00;20.10;;;5.00;;
77061;SDS011;65989;51.686;5.138;2023-10-08T02:17:28;15.73;;;5.00;;
77061;SDS011;65989;51.686;5.138;2023-10-08T02:19:53;15.10;;;5.30;;
77061;SDS011;65989;51.686;5.138;2023-10-08T02:22:18;13.33;;;4.63;;
77061;SDS011;65989;51.686;5.138;2023-10-08T02:24:44;17.65;;;4.63;;
77061;SDS011;65989;51.686;5.138;2023-10-08T02:27:09;15.90;;;4.60;;
77061;SDS011;65989;51.686;5.138;2023-10-08T02:29:35;14.90;;;4.47;;
77061;SDS011;65989;51.686;5.138;2023-10-08T02:32:00;14.03;;;4.37;;
77061;SDS011;65989;51.686;5.138;2023-10-08T02:34:29;14.93;;;4.60;;
77061;SDS011;65989;51.686;5.138;2023-10-08T02:36:55;15.10;;;5.00;;
77061;SDS011;65989;51.686;5.138;2023-10-08T02:39:21;13.82;;;4.70;;
77061;SDS011;65989;51.686;5.138;2023-10-08T02:41:50;13.70;;;4.75;;
77061;SDS011;65989;51.686;5.138;2023-10-08T02:44:15;19.17;;;4.90;;
77061;SDS011;65989;51.686;5.138;2023-10-08T02:46:45;15.80;;;5.10;;
77061;SDS011;65989;51.686;5.138;2023-10-08T02:49:12;18.20;;;5.43;;
77061;SDS011;65989;51.686;5.138;2023-10-08T02:51:42;16.65;;;4.75;;
77061;SDS011;65989;51.686;5.138;2023-10-08T02:54:10;14.48;;;5.13;;
77061;SDS011;65989;51.686;5.138;2023-10-08T02:56:43;13.60;;;4.57;;
77061;SDS011;65989;51.686;5.138;2023-10-08T02:59:10;22.80;;;5.15;;
77061;SDS011;65989;51.686;5.138;2023-10-08T03:01:38;19.20;;;5.33;;
77061;SDS011;65989;51.686;5.138;2023-10-08T03:04:05;19.65;;;5.60;;
77061;SDS011;65989;51.686;5.138;2023-10-08T03:06:39;22.95;;;5.38;;
77061;SDS011;65989;51.686;5.138;2023-10-08T03:09:06;23.38;;;5.35;;
77061;SDS011;65989;51.686;5.138;2023-10-08T03:11:32;17.52;;;5.20;;
77061;SDS011;65989;51.686;5.138;2023-10-08T03:14:00;14.57;;;5.30;;
77061;SDS011;65989;51.686;5.138;2023-10-08T03:16:25;14.70;;;5.30;;
77061;SDS011;65989;51.686;5.138;2023-10-08T03:18:59;14.30;;;5.05;;
77061;SDS011;65989;51.686;5.138;2023-10-08T03:21:24;27.07;;;6.10;;
77061;SDS011;65989;51.686;5.138;2023-10-08T03:24:13;17.25;;;5.10;;
77061;SDS011;65989;51.686;5.138;2023-10-08T03:26:54;22.08;;;6.18;;
77061;SDS011;65989;51.686;5.138;2023-10-08T03:29:30;18.10;;;5.97;;
77061;SDS011;65989;51.686;5.138;2023-10-08T03:31:55;18.23;;;5.23;;
77061;SDS011;65989;51.686;5.138;2023-10-08T03:34:21;17.57;;;5.50;;
77061;SDS011;65989;51.686;5.138;2023-10-08T03:36:58;21.00;;;5.53;;
77061;SDS011;65989;51.686;5.138;2023-10-08T03:39:33;20.13;;;5.60;;
77061;SDS011;65989;51.686;5.138;2023-10-08T03:42:20;14.70;;;4.93;;
77061;SDS011;65989;51.686;5.138;2023-10-08T03:44:46;18.02;;;5.60;;
77061;SDS011;65989;51.686;5.138;2023-10-08T03:47:16;16.80;;;5.82;;
77061;SDS011;65989;51.686;5.138;2023-10-08T03:49:43;17.08;;;5.53;;
77061;SDS011;65989;51.686;5.138;2023-10-08T03:52:10;18.70;;;5.63;;
77061;SDS011;65989;51.686;5.138;2023-10-08T03:54:35;19.37;;;5.10;;
77061;SDS011;65989;51.686;5.138;2023-10-08T03:57:01;16.47;;;5.50;;
77061;SDS011;65989;51.686;5.138;2023-10-08T03:59:29;24.20;;;5.70;;
77061;SDS011;65989;51.686;5.138;2023-10-08T04:01:54;21.57;;;5.43;;
77061;SDS011;65989;51.686;5.138;2023-10-08T04:04:24;16.70;;;4.97;;
77061;SDS011;65989;51.686;5.138;2023-10-08T04:06:56;14.37;;;5.13;;
77061;SDS011;65989;51.686;5.138;2023-10-08T04:09:41;17.50;;;5.88;;
77061;SDS011;65989;51.686;5.138;2023-10-08T04:12:07;17.55;;;5.05;;
77061;SDS011;65989;51.686;5.138;2023-10-08T04:14:36;19.83;;;5.40;;
77061;SDS011;65989;51.686;5.138;2023-10-08T04:17:01;22.00;;;5.30;;
77061;SDS011;65989;51.686;5.138;2023-10-08T04:19:26;16.97;;;5.67;;
77061;SDS011;65989;51.686;5.138;2023-10-08T04:21:52;17.07;;;5.27;;
77061;SDS011;65989;51.686;5.138;2023-10-08T04:24:24;15.38;;;5.00;;
77061;SDS011;65989;51.686;5.138;2023-10-08T04:26:53;15.80;;;4.53;;
77061;SDS011;65989;51.686;5.138;2023-10-08T04:29:21;18.77;;;5.68;;
77061;SDS011;65989;51.686;5.138;2023-10-08T04:31:47;19.90;;;4.83;;
77061;SDS011;65989;51.686;5.138;2023-10-08T04:34:19;17.25;;;5.35;;
77061;SDS011;65989;51.686;5.138;2023-10-08T04:36:48;18.27;;;5.30;;
77061;SDS011;65989;51.686;5.138;2023-10-08T04:39:23;16.20;;;5.22;;
77061;SDS011;65989;51.686;5.138;2023-10-08T04:41:56;20.40;;;5.85;;
77061;SDS011;65989;51.686;5.138;2023-10-08T04:44:24;17.33;;;5.40;;
77061;SDS011;65989;51.686;5.138;2023-10-08T04:46:51;19.45;;;5.28;;
77061;SDS011;65989;51.686;5.138;2023-10-08T04:49:19;15.30;;;6.05;;
77061;SDS011;65989;51.686;5.138;2023-10-08T04:51:59;16.02;;;5.30;;
77061;SDS011;65989;51.686;5.138;2023-10-08T04:54:28;16.70;;;5.85;;
77061;SDS011;65989;51.686;5.138;2023-10-08T04:56:55;14.70;;;5.07;;
77061;SDS011;65989;51.686;5.138;2023-10-08T04:59:22;16.52;;;5.30;;
77061;SDS011;65989;51.686;5.138;2023-10-08T05:01:47;19.55;;;5.75;;
77061;SDS011;65989;51.686;5.138;2023-10-08T05:04:14;17.40;;;5.20;;
77061;SDS011;65989;51.686;5.138;2023-10-08T05:06:49;16.70;;;5.40;;
77061;SDS011;65989;51.686;5.138;2023-10-08T05:09:26;20.13;;;5.32;;
77061;SDS011;65989;51.686;5.138;2023-10-08T05:12:04;16.93;;;5.27;;
77061;SDS011;65989;51.686;5.138;2023-10-08T05:15:01;17.67;;;4.88;;
77061;SDS011;65989;51.686;5.138;2023-10-08T05:17:39;15.88;;;4.93;;
77061;SDS011;65989;51.686;5.138;2023-10-08T05:20:16;18.00;;;5.60;;
77061;SDS011;65989;51.686;5.138;2023-10-08T05:22:45;20.48;;;6.18;;
77061;SDS011;65989;51.686;5.138;2023-10-08T05:25:12;22.37;;;5.70;;
77061;SDS011;65989;51.686;5.138;2023-10-08T05:27:41;18.08;;;5.78;;
77061;SDS011;65989;51.686;5.138;2023-10-08T05:30:12;18.95;;;5.80;;
77061;SDS011;65989;51.686;5.138;2023-10-08T05:33:01;18.17;;;5.25;;
77061;SDS011;65989;51.686;5.138;2023-10-08T05:35:33;16.48;;;5.40;;
77061;SDS011;65989;51.686;5.138;2023-10-08T05:38:11;18.07;;;5.47;;
77061;SDS011;65989;51.686;5.138;2023-10-08T05:41:08;19.17;;;5.78;;
77061;SDS011;65989;51.686;5.138;2023-10-08T05:43:53;19.48;;;5.57;;
77061;SDS011;65989;51.686;5.138;2023-10-08T05:46:39;20.67;;;5.30;;
77061;SDS011;65989;51.686;5.138;2023-10-08T05:49:19;16.48;;;5.63;;
77061;SDS011;65989;51.686;5.138;2023-10-08T05:51:56;19.63;;;5.93;;
77061;SDS011;65989;51.686;5.138;2023-10-08T05:54:39;14.35;;;5.65;;
77061;SDS011;65989;51.686;5.138;2023-10-08T05:57:22;16.10;;;5.55;;
77061;SDS011;65989;51.686;5.138;2023-10-08T06:00:11;16.85;;;5.55;;
77061;SDS011;65989;51.686;5.138;2023-10-08T06:02:40;13.07;;;5.38;;
77061;SDS011;65989;51.686;5.138;2023-10-08T06:05:09;19.63;;;5.67;;
77061;SDS011;65989;51.686;5.138;2023-10-08T06:07:46;14.55;;;6.20;;
77061;SDS011;65989;51.686;5.138;2023-10-08T06:10:18;20.02;;;5.68;;
77061;SDS011;65989;51.686;5.138;2023-10-08T06:12:58;20.52;;;6.30;;
77061;SDS011;65989;51.686;5.138;2023-10-08T06:15:50;17.35;;;5.65;;
77061;SDS011;65989;51.686;5.138;2023-10-08T06:18:21;19.03;;;6.63;;
77061;SDS011;65989;51.686;5.138;2023-10-08T06:20:51;18.05;;;5.57;;
77061;SDS011;65989;51.686;5.138;2023-10-08T06:23:19;18.30;;;5.47;;
77061;SDS011;65989;51.686;5.138;2023-10-08T06:25:45;14.68;;;5.80;;
77061;SDS011;65989;51.686;5.138;2023-10-08T06:28:12;16.53;;;6.00;;
77061;SDS011;65989;51.686;5.138;2023-10-08T06:30:37;14.30;;;5.53;;
77061;SDS011;65989;51.686;5.138;2023-10-08T06:33:06;18.15;;;5.75;;
77061;SDS011;65989;51.686;5.138;2023-10-08T06:35:31;19.37;;;7.03;;
77061;SDS011;65989;51.686;5.138;2023-10-08T06:37:58;18.27;;;6.18;;
77061;SDS011;65989;51.686;5.138;2023-10-08T06:40:25;17.15;;;6.63;;
77061;SDS011;65989;51.686;5.138;2023-10-08T06:43:05;17.95;;;5.88;;
77061;SDS011;65989;51.686;5.138;2023-10-08T06:45:40;18.47;;;5.93;;
77061;SDS011;65989;51.686;5.138;2023-10-08T06:48:06;21.70;;;6.38;;
77061;SDS011;65989;51.686;5.138;2023-10-08T06:50:34;16.42;;;6.15;;
77061;SDS011;65989;51.686;5.138;2023-10-08T06:53:01;19.85;;;6.47;;
77061;SDS011;65989;51.686;5.138;2023-10-08T06:55:31;21.77;;;6.33;;
77061;SDS011;65989;51.686;5.138;2023-10-08T06:57:56;19.02;;;6.22;;
77061;SDS011;65989;51.686;5.138;2023-10-08T07:00:22;17.23;;;6.70;;
77061;SDS011;65989;51.686;5.138;2023-10-08T07:03:03;16.75;;;6.53;;
77061;SDS011;65989;51.686;5.138;2023-10-08T07:05:28;15.77;;;5.90;;
77061;SDS011;65989;51.686;5.138;2023-10-08T07:07:54;19.77;;;6.20;;
77061;SDS011;65989;51.686;5.138;2023-10-08T07:10:19;21.07;;;6.63;;
77061;SDS011;65989;51.686;5.138;2023-10-08T07:12:48;24.63;;;6.97;;
77061;SDS011;65989;51.686;5.138;2023-10-08T07:15:13;23.03;;;7.10;;
77061;SDS011;65989;51.686;5.138;2023-10-08T07:17:39;19.10;;;6.93;;
77061;SDS011;65989;51.686;5.138;2023-10-08T07:20:08;24.70;;;7.88;;
77061;SDS011;65989;51.686;5.138;2023-10-08T07:22:46;23.35;;;7.40;;
77061;SDS011;65989;51.686;5.138;2023-10-08T07:25:13;20.67;;;6.73;;
77061;SDS011;65989;51.686;5.138;2023-10-08T07:27:40;19.98;;;6.72;;
77061;SDS011;65989;51.686;5.138;2023-10-08T07:30:06;20.20;;;7.40;;
77061;SDS011;65989;51.686;5.138;2023-10-08T07:32:35;22.33;;;7.85;;
77061;SDS011;65989;51.686;5.138;2023-10-08T07:35:03;24.85;;;7.35;;
77061;SDS011;65989;51.686;5.138;2023-10-08T07:37:48;22.27;;;7.35;;
77061;SDS011;65989;51.686;5.138;2023-10-08T07:40:13;17.77;;;7.57;;
77061;SDS011;65989;51.686;5.138;2023-10-08T07:42:39;18.00;;;7.32;;
77061;SDS011;65989;51.686;5.138;2023-10-08T07:45:05;16.87;;;7.17;;
77061;SDS011;65989;51.686;5.138;2023-10-08T07:47:30;18.17;;;7.70;;
77061;SDS011;65989;51.686;5.138;2023-10-08T07:49:56;22.35;;;7.68;;
77061;SDS011;65989;51.686;5.138;2023-10-08T07:52:21;21.10;;;7.73;;
77061;SDS011;65989;51.686;5.138;2023-10-08T07:54:46;23.03;;;7.17;;
77061;SDS011;65989;51.686;5.138;2023-10-08T07:57:12;22.92;;;7.47;;
77061;SDS011;65989;51.686;5.138;2023-10-08T07:59:42;23.10;;;7.70;;
77061;SDS011;65989;51.686;5.138;2023-10-08T08:02:14;17.65;;;7.40;;
77061;SDS011;65989;51.686;5.138;2023-10-08T08:04:40;19.33;;;7.28;;
77061;SDS011;65989;51.686;5.138;2023-10-08T08:07:09;23.85;;;7.57;;
77061;SDS011;65989;51.686;5.138;2023-10-08T08:09:41;23.45;;;7.90;;
77061;SDS011;65989;51.686;5.138;2023-10-08T08:12:09;32.30;;;7.93;;
77061;SDS011;65989;51.686;5.138;2023-10-08T08:14:37;28.83;;;8.23;;
77061;SDS011;65989;51.686;5.138;2023-10-08T08:17:05;33.88;;;7.97;;
77061;SDS011;65989;51.686;5.138;2023-10-08T08:19:39;30.23;;;8.98;;
77061;SDS011;65989;51.686;5.138;2023-10-08T08:22:04;37.25;;;9.63;;
77061;SDS011;65989;51.686;5.138;2023-10-08T08:24:29;35.87;;;11.40;;
77061;SDS011;65989;51.686;5.138;2023-10-08T08:26:59;43.47;;;11.40;;
77061;SDS011;65989;51.686;5.138;2023-10-08T08:29:36;39.88;;;11.95;;
77061;SDS011;65989;51.686;5.138;2023-10-08T08:32:11;38.22;;;12.45;;
77061;SDS011;65989;51.686;5.138;2023-10-08T08:34:43;38.72;;;12.50;;
77061;SDS011;65989;51.686;5.138;2023-10-08T08:37:09;42.28;;;13.07;;
77061;SDS011;65989;51.686;5.138;2023-10-08T08:39:35;39.90;;;13.30;;
77061;SDS011;65989;51.686;5.138;2023-10-08T08:42:02;57.55;;;13.30;;
77061;SDS011;65989;51.686;5.138;2023-10-08T08:44:29;39.90;;;13.52;;
77061;SDS011;65989;51.686;5.138;2023-10-08T08:46:55;40.80;;;13.45;;
77061;SDS011;65989;51.686;5.138;2023-10-08T08:49:23;41.35;;;13.05;;
77061;SDS011;65989;51.686;5.138;2023-10-08T08:51:49;49.63;;;12.80;;
77061;SDS011;65989;51.686;5.138;2023-10-08T08:54:18;29.33;;;12.57;;
77061;SDS011;65989;51.686;5.138;2023-10-08T08:56:44;45.15;;;12.75;;
77061;SDS011;65989;51.686;5.138;2023-10-08T08:59:10;36.77;;;12.53;;
77061;SDS011;65989;51.686;5.138;2023-10-08T09:01:38;26.65;;;12.15;;
77061;SDS011;65989;51.686;5.138;2023-10-08T09:04:04;33.10;;;13.47;;
77061;SDS011;65989;51.686;5.138;2023-10-08T09:06:33;38.60;;;12.73;;
77061;SDS011;65989;51.686;5.138;2023-10-08T09:09:01;38.58;;;13.15;;
77061;SDS011;65989;51.686;5.138;2023-10-08T09:11:47;39.90;;;13.32;;
77061;SDS011;65989;51.686;5.138;2023-10-08T09:14:16;38.30;;;12.73;;
77061;SDS011;65989;51.686;5.138;2023-10-08T09:16:41;42.77;;;12.87;;
77061;SDS011;65989;51.686;5.138;2023-10-08T09:19:08;37.07;;;12.87;;
77061;SDS011;65989;51.686;5.138;2023-10-08T09:21:37;42.20;;;12.57;;
77061;SDS011;65989;51.686;5.138;2023-10-08T09:24:02;42.80;;;11.53;;
77061;SDS011;65989;51.686;5.138;2023-10-08T09:26:33;37.88;;;10.85;;
77061;SDS011;65989;51.686;5.138;2023-10-08T09:29:02;37.85;;;11.93;;
77061;SDS011;65989;51.686;5.138;2023-10-08T09:31:29;38.85;;;11.55;;
77061;SDS011;65989;51.686;5.138;2023-10-08T09:34:00;30.87;;;10.17;;
77061;SDS011;65989;51.686;5.138;2023-10-08T09:36:27;38.00;;;11.40;;
77061;SDS011;65989;51.686;5.138;2023-10-08T09:39:02;36.13;;;10.57;;
77061;SDS011;65989;51.686;5.138;2023-10-08T09:41:29;39.95;;;11.23;;
77061;SDS011;65989;51.686;5.138;2023-10-08T09:43:56;36.97;;;10.95;;
77061;SDS011;65989;51.686;5.138;2023-10-08T09:46:23;46.43;;;11.50;;
77061;SDS011;65989;51.686;5.138;2023-10-08T09:48:52;46.92;;;11.00;;
77061;SDS011;65989;51.686;5.138;2023-10-08T09:51:20;38.05;;;11.25;;
77061;SDS011;65989;51.686;5.138;2023-10-08T09:56:13;38.63;;;11.07;;
77061;SDS011;65989;51.686;5.138;2023-10-08T09:58:40;36.17;;;12.02;;
77061;SDS011;65989;51.686;5.138;2023-10-08T10:01:06;41.58;;;11.30;;
77061;SDS011;65989;51.686;5.138;2023-10-08T10:03:32;36.30;;;11.60;;
77061;SDS011;65989;51.686;5.138;2023-10-08T10:06:01;30.67;;;10.40;;
77061;SDS011;65989;51.686;5.138;2023-10-08T10:08:26;36.73;;;10.67;;
77061;SDS011;65989;51.686;5.138;2023-10-08T10:10:59;28.25;;;10.18;;
77061;SDS011;65989;51.686;5.138;2023-10-08T10:13:28;35.72;;;11.45;;
77061;SDS011;65989;51.686;5.138;2023-10-08T10:15:54;34.58;;;11.10;;
77061;SDS011;65989;51.686;5.138;2023-10-08T10:21:29;33.13;;;10.93;;
77061;SDS011;65989;51.686;5.138;2023-10-08T10:23:46;33.03;;;10.57;;
77061;SDS011;65989;51.686;5.138;2023-10-08T10:31:52;32.10;;;11.20;;
77061;SDS011;65989;51.686;5.138;2023-10-08T10:34:27;31.25;;;10.35;;
77061;SDS011;65989;51.686;5.138;2023-10-08T10:36:53;25.48;;;10.05;;
77061;SDS011;65989;51.686;5.138;2023-10-08T10:39:24;28.47;;;10.33;;
77061;SDS011;65989;51.686;5.138;2023-10-08T10:41:53;31.05;;;10.23;;
77061;SDS011;65989;51.686;5.138;2023-10-08T10:44:32;26.58;;;10.35;;
77061;SDS011;65989;51.686;5.138;2023-10-08T10:46:58;29.48;;;11.50;;
77061;SDS011;65989;51.686;5.138;2023-10-08T10:49:42;30.73;;;10.88;;
77061;SDS011;65989;51.686;5.138;2023-10-08T10:52:19;32.87;;;11.07;;
77061;SDS011;65989;51.686;5.138;2023-10-08T10:54:59;36.45;;;11.80;;
77061;SDS011;65989;51.686;5.138;2023-10-08T10:57:25;35.80;;;11.40;;
77061;SDS011;65989;51.686;5.138;2023-10-08T11:00:03;27.23;;;10.73;;
77061;SDS011;65989;51.686;5.138;2023-10-08T11:02:44;26.38;;;11.20;;
77061;SDS011;65989;51.686;5.138;2023-10-08T11:05:13;33.93;;;11.60;;
77061;SDS011;65989;51.686;5.138;2023-10-08T11:07:44;30.20;;;11.88;;
77061;SDS011;65989;51.686;5.138;2023-10-08T11:10:10;30.03;;;11.20;;
77061;SDS011;65989;51.686;5.138;2023-10-08T11:12:40;30.30;;;11.83;;
77061;SDS011;65989;51.686;5.138;2023-10-08T11:15:26;24.05;;;11.02;;
77061;SDS011;65989;51.686;5.138;2023-10-08T11:17:56;28.00;;;11.32;;
77061;SDS011;65989;51.686;5.138;2023-10-08T11:20:25;33.25;;;12.10;;
77061;SDS011;65989;51.686;5.138;2023-10-08T11:22:50;31.90;;;12.07;;
77061;SDS011;65989;51.686;5.138;2023-10-08T11:25:25;27.03;;;11.83;;
77061;SDS011;65989;51.686;5.138;2023-10-08T11:27:55;25.52;;;11.85;;
77061;SDS011;65989;51.686;5.138;2023-10-08T11:30:27;33.28;;;12.95;;
77061;SDS011;65989;51.686;5.138;2023-10-08T11:32:55;28.70;;;11.65;;
77061;SDS011;65989;51.686;5.138;2023-10-08T11:35:21;34.50;;;11.57;;
77061;SDS011;65989;51.686;5.138;2023-10-08T11:37:47;31.30;;;11.83;;
77061;SDS011;65989;51.686;5.138;2023-10-08T11:40:22;26.42;;;11.45;;
77061;SDS011;65989;51.686;5.138;2023-10-08T11:42:53;34.53;;;12.33;;
77061;SDS011;65989;51.686;5.138;2023-10-08T11:45:22;25.05;;;10.73;;
77061;SDS011;65989;51.686;5.138;2023-10-08T11:47:51;22.98;;;10.65;;
77061;SDS011;65989;51.686;5.138;2023-10-08T11:50:22;26.75;;;11.95;;
77061;SDS011;65989;51.686;5.138;2023-10-08T11:52:55;24.92;;;10.82;;
77061;SDS011;65989;51.686;5.138;2023-10-08T11:55:21;23.33;;;10.53;;
77061;SDS011;65989;51.686;5.138;2023-10-08T11:57:47;30.23;;;10.87;;
77061;SDS011;65989;51.686;5.138;2023-10-08T12:00:14;26.55;;;10.60;;
77061;SDS011;65989;51.686;5.138;2023-10-08T12:02:48;26.60;;;11.18;;
77061;SDS011;65989;51.686;5.138;2023-10-08T12:05:14;25.35;;;10.13;;
77061;SDS011;65989;51.686;5.138;2023-10-08T12:07:52;21.80;;;10.63;;
77061;SDS011;65989;51.686;5.138;2023-10-08T12:10:18;21.63;;;10.13;;
77061;SDS011;65989;51.686;5.138;2023-10-08T12:12:47;24.13;;;10.45;;
77061;SDS011;65989;51.686;5.138;2023-10-08T12:15:13;21.73;;;9.82;;
77061;SDS011;65989;51.686;5.138;2023-10-08T12:17:44;23.73;;;10.90;;
77061;SDS011;65989;51.686;5.138;2023-10-08T12:20:18;25.88;;;11.00;;
77061;SDS011;65989;51.686;5.138;2023-10-08T12:22:50;23.67;;;10.73;;
77061;SDS011;65989;51.686;5.138;2023-10-08T12:25:15;24.38;;;10.88;;
77061;SDS011;65989;51.686;5.138;2023-10-08T12:27:41;22.83;;;10.27;;
77061;SDS011;65989;51.686;5.138;2023-10-08T12:30:06;28.70;;;9.43;;
77061;SDS011;65989;51.686;5.138;2023-10-08T12:32:38;26.52;;;10.80;;
77061;SDS011;65989;51.686;5.138;2023-10-08T12:35:07;22.80;;;10.40;;
77061;SDS011;65989;51.686;5.138;2023-10-08T12:37:37;18.67;;;9.73;;
77061;SDS011;65989;51.686;5.138;2023-10-08T12:40:04;21.13;;;9.95;;
77061;SDS011;65989;51.686;5.138;2023-10-08T12:42:36;23.52;;;9.75;;
77061;SDS011;65989;51.686;5.138;2023-10-08T12:45:04;21.42;;;9.88;;
77061;SDS011;65989;51.686;5.138;2023-10-08T12:47:37;19.58;;;9.93;;
77061;SDS011;65989;51.686;5.138;2023-10-08T12:50:02;22.57;;;9.10;;
77061;SDS011;65989;51.686;5.138;2023-10-08T12:52:32;27.10;;;9.70;;
77061;SDS011;65989;51.686;5.138;2023-10-08T12:55:00;20.67;;;9.43;;
77061;SDS011;65989;51.686;5.138;2023-10-08T12:57:30;18.90;;;9.15;;
77061;SDS011;65989;51.686;5.138;2023-10-08T12:59:58;25.95;;;9.23;;
77061;SDS011;65989;51.686;5.138;2023-10-08T13:02:24;22.38;;;8.85;;
77061;SDS011;65989;51.686;5.138;2023-10-08T13:04:53;23.45;;;9.95;;
77061;SDS011;65989;51.686;5.138;2023-10-08T13:07:20;20.20;;;9.63;;
77061;SDS011;65989;51.686;5.138;2023-10-08T13:09:47;21.40;;;9.68;;
77061;SDS011;65989;51.686;5.138;2023-10-08T13:12:12;26.23;;;9.50;;
77061;SDS011;65989;51.686;5.138;2023-10-08T13:14:39;21.92;;;10.15;;
77061;SDS011;65989;51.686;5.138;2023-10-08T13:17:04;22.93;;;10.30;;
77061;SDS011;65989;51.686;5.138;2023-10-08T13:19:35;20.58;;;9.55;;
77061;SDS011;65989;51.686;5.138;2023-10-08T13:22:01;24.63;;;9.57;;
77061;SDS011;65989;51.686;5.138;2023-10-08T13:24:26;18.70;;;9.20;;
77061;SDS011;65989;51.686;5.138;2023-10-08T13:26:53;25.27;;;9.82;;
77061;SDS011;65989;51.686;5.138;2023-10-08T13:29:18;16.60;;;8.70;;
77061;SDS011;65989;51.686;5.138;2023-10-08T13:31:44;22.40;;;9.60;;
77061;SDS011;65989;51.686;5.138;2023-10-08T13:34:10;23.83;;;10.40;;
77061;SDS011;65989;51.686;5.138;2023-10-08T13:36:37;20.02;;;9.80;;
77061;SDS011;65989;51.686;5.138;2023-10-08T13:39:03;23.10;;;9.50;;
77061;SDS011;65989;51.686;5.138;2023-10-08T13:41:29;25.00;;;10.38;;
77061;SDS011;65989;51.686;5.138;2023-10-08T13:43:54;23.97;;;11.20;;
77061;SDS011;65989;51.686;5.138;2023-10-08T13:46:30;24.95;;;10.52;;
77061;SDS011;65989;51.686;5.138;2023-10-08T13:48:56;27.73;;;10.93;;
77061;SDS011;65989;51.686;5.138;2023-10-08T13:51:23;26.30;;;12.00;;
77061;SDS011;65989;51.686;5.138;2023-10-08T13:53:56;25.35;;;11.95;;
77061;SDS011;65989;51.686;5.138;2023-10-08T13:56:31;22.88;;;11.98;;
77061;SDS011;65989;51.686;5.138;2023-10-08T13:58:57;25.03;;;12.07;;
77061;SDS011;65989;51.686;5.138;2023-10-08T14:01:32;22.77;;;11.63;;
77061;SDS011;65989;51.686;5.138;2023-10-08T14:04:01;24.77;;;11.30;;
77061;SDS011;65989;51.686;5.138;2023-10-08T14:06:31;27.30;;;12.15;;
77061;SDS011;65989;51.686;5.138;2023-10-08T14:08:56;24.07;;;12.87;;
77061;SDS011;65989;51.686;5.138;2023-10-08T14:11:22;23.47;;;11.40;;
77061;SDS011;65989;51.686;5.138;2023-10-08T14:13:55;25.95;;;13.43;;
77061;SDS011;65989;51.686;5.138;2023-10-08T14:16:20;24.95;;;11.65;;
77061;SDS011;65989;51.686;5.138;2023-10-08T14:18:49;27.30;;;12.70;;
77061;SDS011;65989;51.686;5.138;2023-10-08T14:21:18;30.20;;;11.97;;
77061;SDS011;65989;51.686;5.138;2023-10-08T14:23:44;33.55;;;13.38;;
77061;SDS011;65989;51.686;5.138;2023-10-08T14:26:09;29.20;;;13.37;;
77061;SDS011;65989;51.686;5.138;2023-10-08T14:28:35;27.67;;;12.70;;
77061;SDS011;65989;51.686;5.138;2023-10-08T14:31:16;27.80;;;12.88;;
77061;SDS011;65989;51.686;5.138;2023-10-08T14:33:41;26.57;;;12.63;;
77061;SDS011;65989;51.686;5.138;2023-10-08T14:36:09;24.75;;;11.88;;
77061;SDS011;65989;51.686;5.138;2023-10-08T14:38:53;33.08;;;11.65;;
77061;SDS011;65989;51.686;5.138;2023-10-08T14:41:36;27.33;;;11.98;;
77061;SDS011;65989;51.686;5.138;2023-10-08T14:44:20;26.63;;;12.80;;
77061;SDS011;65989;51.686;5.138;2023-10-08T14:46:46;26.73;;;11.23;;
77061;SDS011;65989;51.686;5.138;2023-10-08T14:49:11;27.00;;;11.37;;
77061;SDS011;65989;51.686;5.138;2023-10-08T14:51:37;27.73;;;12.30;;
77061;SDS011;65989;51.686;5.138;2023-10-08T14:54:03;26.73;;;12.03;;
77061;SDS011;65989;51.686;5.138;2023-10-08T14:56:28;30.63;;;12.60;;